KPAE/PAE METAR and TAF weather

Enter ICAO airport designator
Station Type Date Time Source
KPAE METAR 2019/06/18 23:53 UTC NOAA

KPAE 182353Z 34005KT 9SM OVC018 14/11 A3023 RMK AO2 SLP238 T01440106 10156 20133 58003


Station Type Date Time Source
KPAE Decoded METAR 2019/06/18 23:53 UTC NOAA

EVERETT SNOHOMISH COUNTY, WA, United States (KPAE) 47-55N 122-17W 180M
Jun 18, 2019 - 07:53 PM EDT / 2019.06.18 2353 UTC
Wind: from the NNW (340 degrees) at 6 MPH (5 KT):0
Visibility: 9 mile(s):0
Sky conditions: overcast
Temperature: 57.9 F (14.4 C)
Dew Point: 51.1 F (10.6 C)
Relative Humidity: 77%
Pressure (altimeter): 30.23 in. Hg (1023 hPa)
Pressure tendency: 0.01 inches (0.3 hPa) lower than three hours ago
ob: KPAE 182353Z 34005KT 9SM OVC018 14/11 A3023 RMK AO2 SLP238 T01440106 10156 20133 58003
cycle: 0

Station Type Date Time Source
KPAE TAF 2019/06/18 18:27 UTC NOAA

TAF KPAE 181724Z 1818/1918 02006KT P6SM SCT012 OVC027
TEMPO 1818/1821 5SM -DZ BR BKN014 OVC022
FM182100 01007KT P6SM SCT025 BKN040
FM190700 01010KT P6SM BKN012 BKN025
FM191600 19009KT P6SM VCSH BKN017 OVC030

Example: see airport list